createdAt,value
2018-04-16T00:01:31.982Z,96.60
2018-04-16T00:04:00.127Z,96.70
2018-04-16T00:06:28.237Z,97.00
2018-04-16T00:08:57.138Z,97.30
2018-04-16T00:11:26.023Z,97.50
2018-04-16T00:13:54.152Z,97.50
2018-04-16T00:16:22.295Z,97.20
2018-04-16T00:18:50.435Z,97.00
2018-04-16T00:21:18.541Z,97.00
2018-04-16T00:23:46.685Z,97.10
2018-04-16T00:26:15.558Z,97.90
2018-04-16T00:28:43.695Z,97.80
2018-04-16T00:31:11.808Z,97.90
2018-04-16T00:33:56.764Z,98.20
2018-04-16T00:36:30.554Z,98.00
2018-04-16T00:39:16.420Z,98.00
2018-04-16T00:41:50.144Z,98.10
2018-04-16T00:44:37.034Z,97.90
2018-04-16T00:47:10.761Z,97.90
2018-04-16T00:49:44.465Z,98.00
2018-04-16T00:52:18.171Z,98.00
2018-04-16T00:54:52.079Z,98.00
2018-04-16T00:57:25.847Z,98.40
2018-04-16T00:59:59.606Z,98.70
2018-04-16T01:02:33.324Z,98.50
2018-04-16T01:05:07.251Z,97.90
2018-04-16T01:07:41.742Z,98.20
2018-04-16T01:10:15.633Z,98.20
2018-04-16T01:12:49.578Z,98.60
2018-04-16T01:15:23.360Z,98.60
2018-04-16T01:17:57.156Z,99.20
2018-04-16T01:20:31.046Z,99.00
2018-04-16T01:23:04.823Z,98.80
2018-04-16T01:25:40.017Z,98.50
2018-04-16T01:28:13.781Z,98.50
2018-04-16T01:30:47.619Z,98.40
2018-04-16T01:33:22.257Z,98.50
2018-04-16T01:35:55.954Z,98.30
2018-04-16T01:38:29.908Z,98.10
2018-04-16T01:41:04.450Z,97.90
2018-04-16T01:43:38.214Z,97.90
2018-04-16T01:46:11.973Z,97.50
2018-04-16T01:48:45.953Z,97.60
2018-04-16T01:51:20.595Z,98.00
2018-04-16T01:53:54.312Z,98.00
2018-04-16T01:56:28.200Z,98.30
2018-04-16T01:59:02.970Z,98.70
2018-04-16T02:01:36.754Z,98.70
2018-04-16T02:04:10.551Z,98.60
2018-04-16T02:06:44.441Z,98.40
2018-04-16T02:09:19.130Z,98.30
2018-04-16T02:11:52.917Z,98.30
2018-04-16T02:14:26.782Z,98.20
2018-04-16T02:17:01.424Z,98.20
2018-04-16T02:19:35.164Z,98.20
2018-04-16T02:22:08.965Z,98.30
2018-04-16T02:24:57.977Z,98.10
2018-04-16T02:27:32.461Z,98.50
2018-04-16T02:30:07.040Z,98.50
2018-04-16T02:32:41.046Z,98.40
2018-04-16T02:35:15.770Z,98.20
2018-04-16T02:37:50.256Z,98.30
2018-04-16T02:40:24.087Z,98.30
2018-04-16T02:42:58.732Z,98.20
2018-04-16T02:45:32.646Z,98.20
2018-04-16T02:48:06.373Z,98.20
2018-04-16T02:50:40.064Z,98.20
2018-04-16T02:53:13.913Z,98.20
2018-04-16T02:55:47.697Z,98.30
2018-04-16T02:58:21.394Z,98.30
2018-04-16T03:00:55.270Z,98.30
2018-04-16T03:03:29.884Z,98.10
2018-04-16T03:06:04.516Z,98.00
2018-04-16T03:08:38.993Z,98.10
2018-04-16T03:11:12.999Z,98.10
2018-04-16T03:13:46.834Z,98.30
2018-04-16T03:16:20.693Z,98.30
2018-04-16T03:18:54.574Z,98.20
2018-04-16T03:21:29.102Z,98.50
2018-04-16T03:24:03.803Z,98.10
2018-04-16T03:26:37.650Z,98.10
2018-04-16T03:29:11.343Z,98.30
2018-04-16T03:31:45.851Z,98.00
2018-04-16T03:34:20.338Z,98.00
2018-04-16T03:36:54.273Z,98.00
2018-04-16T03:39:28.005Z,98.00
2018-04-16T03:42:01.918Z,98.30
2018-04-16T03:44:35.662Z,98.10
2018-04-16T03:47:20.109Z,97.70
2018-04-16T03:49:53.799Z,97.70
2018-04-16T03:52:27.546Z,98.30
2018-04-16T03:54:57.097Z,98.70
2018-04-16T03:57:25.226Z,98.70
2018-04-16T03:59:53.341Z,98.50
2018-04-16T04:02:21.489Z,98.20
2018-04-16T04:04:50.511Z,98.30
2018-04-16T04:07:18.652Z,98.20
2018-04-16T04:09:46.762Z,98.40
2018-04-16T04:12:14.902Z,98.70
2018-04-16T04:14:43.823Z,99.00
2018-04-16T04:17:11.964Z,98.80
2018-04-16T04:19:40.845Z,98.70
2018-04-16T04:22:08.984Z,98.70
2018-04-16T04:24:48.910Z,98.60
2018-04-16T04:27:28.894Z,98.40
2018-04-16T04:30:08.829Z,98.50
2018-04-16T04:32:37.204Z,98.40
2018-04-16T04:35:06.968Z,98.70
2018-04-16T04:37:35.114Z,98.70
2018-04-16T04:40:03.229Z,98.60
2018-04-16T04:42:32.129Z,99.10
2018-04-16T04:45:01.010Z,99.10
2018-04-16T04:47:29.918Z,99.00
2018-04-16T04:49:58.029Z,99.00
2018-04-16T04:52:26.169Z,98.80
2018-04-16T04:54:54.283Z,99.00
2018-04-16T04:57:22.419Z,99.40
2018-04-16T04:59:50.537Z,98.90
2018-04-16T05:02:18.688Z,99.10
2018-04-16T05:04:46.798Z,98.90
2018-04-16T05:07:15.297Z,98.90
2018-04-16T05:09:44.181Z,99.00
2018-04-16T05:12:12.318Z,99.00
2018-04-16T05:14:40.471Z,99.00
2018-04-16T05:17:08.625Z,98.70
2018-04-16T05:19:37.515Z,98.70
2018-04-16T05:22:05.637Z,98.70
2018-04-16T05:24:33.779Z,98.70
2018-04-16T05:27:01.907Z,98.50
2018-04-16T05:29:30.840Z,99.20
2018-04-16T05:31:58.952Z,99.20
2018-04-16T05:34:27.098Z,99.10
2018-04-16T05:36:55.222Z,99.00
2018-04-16T05:39:23.353Z,98.90
2018-04-16T05:41:51.470Z,98.80
2018-04-16T05:44:20.399Z,98.20
2018-04-16T05:46:48.519Z,98.10
2018-04-16T05:49:16.666Z,98.30
2018-04-16T05:51:44.785Z,98.40
2018-04-16T05:54:12.983Z,98.10
2018-04-16T05:56:41.097Z,98.30
2018-04-16T05:59:09.241Z,98.40
2018-04-16T06:01:37.352Z,98.40
2018-04-16T06:04:05.494Z,98.50
2018-04-16T06:06:33.653Z,98.40
2018-04-16T06:09:02.590Z,98.80
2018-04-16T06:11:30.709Z,98.70
2018-04-16T06:13:59.601Z,98.60
2018-04-16T06:16:28.491Z,98.40
2018-04-16T06:18:57.388Z,98.10
2018-04-16T06:21:25.500Z,98.00
2018-04-16T06:23:53.639Z,97.90
2018-04-16T06:26:21.767Z,98.00
2018-04-16T06:28:49.916Z,98.10
2018-04-16T06:31:18.044Z,98.20
2018-04-16T06:33:46.950Z,98.30
2018-04-16T06:36:15.065Z,98.30
2018-04-16T06:38:43.200Z,98.50
2018-04-16T06:41:11.314Z,98.50
2018-04-16T06:43:39.444Z,99.00
2018-04-16T06:46:07.568Z,98.90
2018-04-16T06:48:35.720Z,98.70
2018-04-16T06:51:03.832Z,98.70
2018-04-16T06:53:31.969Z,98.20
2018-04-16T06:56:00.088Z,97.90
2018-04-16T06:58:28.995Z,98.20
2018-04-16T07:00:57.904Z,97.50
2018-04-16T07:03:26.071Z,97.50
2018-04-16T07:05:54.191Z,97.10
2018-04-16T07:08:22.340Z,96.70
2018-04-16T07:10:50.459Z,96.40
2018-04-16T07:13:19.400Z,95.50
2018-04-16T07:15:47.536Z,95.50
2018-04-16T07:18:15.711Z,95.30
2018-04-16T07:20:44.594Z,95.40
2018-04-16T07:23:13.499Z,94.80
2018-04-16T07:25:41.661Z,94.80
2018-04-16T07:28:11.281Z,93.60
2018-04-16T07:30:40.179Z,93.90
2018-04-16T07:33:08.325Z,93.80
2018-04-16T07:35:36.461Z,93.60
2018-04-16T07:38:04.626Z,93.40
2018-04-16T07:40:32.784Z,93.60
2018-04-16T07:43:00.894Z,93.20
2018-04-16T07:45:29.051Z,93.20
2018-04-16T07:47:58.161Z,93.00
2018-04-16T07:50:26.298Z,93.00
2018-04-16T07:52:54.427Z,92.70
2018-04-16T07:55:22.602Z,92.50
2018-04-16T07:57:50.763Z,92.70
2018-04-16T08:00:20.728Z,92.80
2018-04-16T08:05:18.496Z,92.80
2018-04-16T08:07:47.430Z,92.00
2018-04-16T08:10:15.578Z,92.00
2018-04-16T08:12:43.693Z,99.90
2018-04-16T08:15:11.835Z,91.30
2018-04-16T08:17:41.434Z,90.90
2018-04-16T08:22:39.104Z,90.20
2018-04-16T08:25:08.120Z,89.30
2018-04-16T08:27:36.242Z,99.90
2018-04-16T08:45:04.186Z,72.50
2018-04-16T08:47:32.310Z,73.70
2018-04-16T08:50:01.422Z,76.70
2018-04-16T08:52:29.539Z,76.70
2018-04-16T08:54:57.687Z,74.10
2018-04-16T08:57:25.815Z,73.20
2018-04-16T09:22:20.455Z,70.30
2018-04-16T09:24:48.951Z,70.30
2018-04-16T09:27:17.179Z,70.40
2018-04-16T09:29:45.315Z,73.30
2018-04-16T09:32:13.438Z,69.80
2018-04-16T09:34:41.590Z,69.60
2018-04-16T09:37:10.970Z,64.70
2018-04-16T09:39:39.116Z,65.30
2018-04-16T09:42:08.006Z,64.00
2018-04-16T09:44:36.924Z,61.40
2018-04-16T09:47:05.058Z,61.40
2018-04-16T09:49:33.186Z,61.70
2018-04-16T09:52:01.853Z,62.90
2018-04-16T09:54:29.991Z,62.30
2018-04-16T09:56:58.264Z,59.20
2018-04-16T09:59:26.372Z,59.40
2018-04-16T10:01:54.522Z,59.20
2018-04-16T10:04:22.628Z,58.20
2018-04-16T10:06:50.761Z,58.00
2018-04-16T14:48:15.130Z,58.40
2018-04-16T14:50:44.005Z,60.90
2018-04-16T14:53:12.147Z,61.00
2018-04-16T14:55:41.027Z,58.90
2018-04-16T14:58:09.934Z,59.40
2018-04-16T15:00:38.056Z,59.40
2018-04-16T15:03:06.184Z,60.00
2018-04-16T15:05:35.608Z,61.70
2018-04-16T15:08:06.585Z,61.10
2018-04-16T15:10:34.701Z,61.70
2018-04-16T15:13:03.015Z,63.80
2018-04-16T15:15:31.150Z,61.40
2018-04-16T15:18:00.054Z,58.90
2018-04-16T15:20:28.163Z,58.80
2018-04-16T15:22:56.303Z,58.20
2018-04-16T15:25:24.427Z,57.00
2018-04-16T15:27:52.564Z,57.10
2018-04-16T15:30:20.674Z,57.40
2018-04-16T15:32:48.866Z,58.50
2018-04-16T15:35:16.939Z,58.00
2018-04-16T15:37:45.856Z,57.90
2018-04-16T15:40:13.994Z,57.90
2018-04-16T15:42:42.138Z,58.90
2018-04-16T15:45:10.256Z,59.80
2018-04-16T15:47:38.390Z,60.20
2018-04-16T15:50:06.493Z,60.00
2018-04-16T15:52:34.632Z,58.90
2018-04-16T15:55:02.803Z,58.60
2018-04-16T15:57:30.947Z,57.30
2018-04-16T15:59:59.057Z,57.10
2018-04-16T16:02:27.200Z,56.30
2018-04-16T16:04:55.301Z,56.70
2018-04-16T16:07:23.436Z,58.20
2018-04-16T16:09:51.776Z,59.90
2018-04-16T16:12:19.923Z,58.70
2018-04-16T16:14:48.033Z,58.00
2018-04-16T16:17:16.189Z,60.50
2018-04-16T16:19:44.306Z,58.60
2018-04-16T16:22:13.211Z,59.70
2018-04-16T16:24:41.318Z,59.60
2018-04-16T16:27:09.469Z,59.70
2018-04-16T16:29:37.572Z,60.70
2018-04-16T16:32:06.599Z,58.60
2018-04-16T16:34:35.504Z,59.30
2018-04-16T16:37:03.651Z,59.80
2018-04-16T16:39:31.757Z,58.80
2018-04-16T16:41:59.903Z,59.10
2018-04-16T16:44:28.013Z,58.00
2018-04-16T16:46:56.146Z,59.30
2018-04-16T16:49:24.261Z,60.50
2018-04-16T16:51:53.403Z,60.00
2018-04-16T16:54:21.541Z,59.90
2018-04-16T16:56:49.650Z,59.10
2018-04-16T16:59:17.788Z,59.00
2018-04-16T17:01:46.740Z,59.90
2018-04-16T17:04:14.953Z,60.90
2018-04-16T17:06:43.067Z,61.80
2018-04-16T17:09:11.198Z,63.50
2018-04-16T17:11:39.296Z,63.40
2018-04-16T17:14:07.439Z,62.50
2018-04-16T17:16:35.553Z,62.30
2018-04-16T17:19:03.737Z,62.90
2018-04-16T17:21:31.852Z,64.60
2018-04-16T17:23:59.994Z,66.40
2018-04-16T17:26:28.117Z,67.30
2018-04-16T17:28:56.329Z,69.00
2018-04-16T17:31:24.444Z,68.80
2018-04-16T17:33:52.587Z,69.00
2018-04-16T17:36:21.485Z,69.60
2018-04-16T17:38:49.698Z,69.50
2018-04-16T17:41:17.908Z,70.80
2018-04-16T17:43:46.138Z,71.00
2018-04-16T17:46:14.266Z,70.00
2018-04-16T17:48:42.390Z,69.90
2018-04-16T17:51:10.504Z,70.10
2018-04-16T17:53:39.714Z,70.60
2018-04-16T17:56:08.002Z,70.60
2018-04-16T17:58:36.142Z,70.90
2018-04-16T18:01:04.260Z,70.40
2018-04-16T18:03:32.404Z,71.50
2018-04-16T18:06:00.599Z,73.60
2018-04-16T18:08:28.727Z,73.80
2018-04-16T18:10:58.210Z,73.30
2018-04-16T18:13:28.863Z,74.10
2018-04-16T18:15:57.129Z,73.90
2018-04-16T18:18:25.427Z,72.90
2018-04-16T18:20:53.623Z,72.60
2018-04-16T18:23:21.747Z,73.20
2018-04-16T18:25:49.878Z,73.90
2018-04-16T18:28:18.040Z,74.90
2018-04-16T18:30:46.227Z,75.80
2018-04-16T18:33:14.378Z,75.60
2018-04-16T18:35:42.553Z,75.30
2018-04-16T18:38:11.066Z,75.50
2018-04-16T18:40:40.674Z,75.70
2018-04-16T18:43:08.821Z,77.40
2018-04-16T18:45:37.035Z,78.40
2018-04-16T18:48:06.055Z,79.00
2018-04-16T18:50:34.216Z,79.60
2018-04-16T18:53:03.173Z,78.70
2018-04-16T18:55:31.378Z,78.80
2018-04-16T18:58:00.269Z,79.10
2018-04-16T19:00:29.169Z,79.90
2018-04-16T19:02:57.349Z,79.90
2018-04-16T19:05:25.525Z,79.30
2018-04-16T19:07:53.857Z,79.40
2018-04-16T19:10:22.992Z,80.70
2018-04-16T19:12:51.239Z,80.70
2018-04-16T19:15:20.130Z,79.30
2018-04-16T19:17:53.889Z,78.80
2018-04-16T19:20:27.730Z,79.00
2018-04-16T19:22:55.995Z,79.50
2018-04-16T19:25:24.193Z,79.10
2018-04-16T19:27:58.939Z,80.60
2018-04-16T19:30:27.804Z,80.50
2018-04-16T19:33:01.766Z,80.50
2018-04-16T19:35:29.875Z,80.80
2018-04-16T19:37:58.005Z,81.30
2018-04-16T19:40:26.275Z,81.90
2018-04-16T19:42:55.241Z,81.50
2018-04-16T19:45:24.347Z,81.40
2018-04-16T19:47:52.529Z,81.30
2018-04-16T19:50:21.445Z,82.00
2018-04-16T19:52:49.605Z,82.00
2018-04-16T19:55:17.992Z,82.10
2018-04-16T19:57:51.767Z,81.70
2018-04-16T20:00:19.909Z,81.90
2018-04-16T20:02:53.707Z,82.00
2018-04-16T20:05:21.829Z,82.50
2018-04-16T20:07:50.711Z,84.10
2018-04-16T20:10:19.619Z,84.60
2018-04-16T20:12:48.502Z,84.90
2018-04-16T20:15:17.394Z,84.20
2018-04-16T20:17:46.269Z,84.40
2018-04-16T20:20:14.412Z,84.40
2018-04-16T20:22:42.531Z,84.00
2018-04-16T20:25:11.434Z,83.80
2018-04-16T20:27:39.554Z,83.80
2018-04-16T20:30:07.694Z,83.70
2018-04-16T20:32:35.810Z,83.60
2018-04-16T20:35:03.939Z,83.50
2018-04-16T20:37:32.069Z,84.90
2018-04-16T20:40:00.215Z,84.00
2018-04-16T20:42:28.614Z,84.20
2018-04-16T20:44:56.764Z,84.50
2018-04-16T20:47:24.875Z,84.40
2018-04-16T20:49:53.014Z,84.60
2018-04-16T20:52:21.113Z,84.60
2018-04-16T20:54:49.266Z,85.90
2018-04-16T20:57:17.386Z,87.20
2018-04-16T20:59:46.288Z,87.30
2018-04-16T21:02:14.397Z,87.20
2018-04-16T21:04:42.521Z,87.30
2018-04-16T21:07:11.408Z,87.10
2018-04-16T21:09:40.310Z,87.40
2018-04-16T21:12:08.440Z,87.40
2018-04-16T21:14:36.585Z,87.60
2018-04-16T21:17:04.700Z,87.90
2018-04-16T21:19:32.849Z,87.70
2018-04-16T21:22:00.967Z,87.60
2018-04-16T21:24:29.871Z,87.90
2018-04-16T21:26:57.994Z,87.80
2018-04-16T21:29:26.128Z,88.10
2018-04-16T21:31:54.239Z,88.10
2018-04-16T21:34:22.371Z,88.40
2018-04-16T21:36:50.472Z,88.60
2018-04-16T21:39:18.587Z,89.00
2018-04-16T21:41:47.484Z,89.80
2018-04-16T21:44:16.357Z,90.00
2018-04-16T21:46:44.499Z,90.00
2018-04-16T21:49:12.618Z,90.10
2018-04-16T21:51:41.519Z,90.30
2018-04-16T21:54:10.398Z,90.20
2018-04-16T21:56:39.316Z,89.90
2018-04-16T21:59:07.426Z,89.90
2018-04-16T22:01:35.555Z,89.60
2018-04-16T22:04:03.671Z,90.00
2018-04-16T22:06:31.816Z,90.10
2018-04-16T22:08:59.933Z,90.00
2018-04-16T22:11:28.072Z,90.00
2018-04-16T22:13:56.181Z,90.40
2018-04-16T22:16:24.323Z,90.40
2018-04-16T22:18:52.434Z,90.30
2018-04-16T22:21:20.569Z,90.50
2018-04-16T22:23:48.706Z,90.80
2018-04-16T22:26:17.609Z,90.60
2018-04-16T22:28:45.729Z,90.50
2018-04-16T22:31:13.878Z,91.10
2018-04-16T22:33:41.993Z,91.00
2018-04-16T22:36:10.143Z,91.10
2018-04-16T22:38:38.251Z,91.60
2018-04-16T22:41:06.396Z,91.20
2018-04-16T22:43:34.525Z,91.10
2018-04-16T22:46:02.675Z,90.50
2018-04-16T22:48:31.558Z,90.30
2018-04-16T22:50:59.690Z,90.30
2018-04-16T22:53:27.808Z,91.10
2018-04-16T22:55:56.706Z,91.10
2018-04-16T22:58:25.580Z,90.90
2018-04-16T23:00:53.713Z,90.90
2018-04-16T23:03:21.828Z,91.10
2018-04-16T23:05:49.979Z,91.60
2018-04-16T23:08:18.094Z,91.40
2018-04-16T23:10:46.998Z,90.70
2018-04-16T23:13:15.113Z,90.70
2018-04-16T23:15:43.246Z,90.60
2018-04-16T23:18:11.394Z,91.00
2018-04-16T23:20:40.305Z,91.90
2018-04-16T23:23:08.412Z,91.90
2018-04-16T23:25:37.318Z,91.90
2018-04-16T23:28:05.423Z,91.90
2018-04-16T23:30:34.322Z,92.00
2018-04-16T23:33:03.305Z,92.20
2018-04-16T23:35:31.474Z,92.20
2018-04-16T23:37:59.601Z,92.10
2018-04-16T23:40:27.739Z,92.50
2018-04-16T23:42:56.614Z,92.40
2018-04-16T23:45:25.520Z,92.20
2018-04-16T23:47:54.409Z,92.40
2018-04-16T23:50:23.306Z,92.40
2018-04-16T23:52:52.274Z,92.30
2018-04-16T23:55:20.412Z,92.30
2018-04-16T23:57:48.521Z,92.40
